createdAt,value
2019-05-01T00:01:34.581Z,95.70
2019-05-01T00:04:23.082Z,95.80
2019-05-01T00:06:55.084Z,95.80
2019-05-01T00:09:24.733Z,96.00
2019-05-01T00:11:54.341Z,96.30
2019-05-01T00:14:24.204Z,96.60
2019-05-01T00:16:53.813Z,96.60
2019-05-01T00:19:23.592Z,96.50
2019-05-01T00:21:53.596Z,96.50
2019-05-01T00:24:23.253Z,96.60
2019-05-01T00:26:52.855Z,96.90
2019-05-01T00:29:22.530Z,97.20
2019-05-01T00:31:52.151Z,97.50
2019-05-01T00:34:21.783Z,97.50
2019-05-01T00:36:51.400Z,97.60
2019-05-01T00:39:21.029Z,97.60
2019-05-01T00:41:50.681Z,97.90
2019-05-01T00:44:20.313Z,98.10
2019-05-01T00:46:49.936Z,98.10
2019-05-01T00:49:19.530Z,98.30
2019-05-01T00:51:49.210Z,98.70
2019-05-01T00:54:18.863Z,98.90
2019-05-01T00:57:05.934Z,98.80
2019-05-01T01:00:03.213Z,98.90
2019-05-01T01:02:53.128Z,99.00
2019-05-01T01:05:23.076Z,99.40
2019-05-01T01:07:52.718Z,99.70
2019-05-01T01:10:22.361Z,99.60
2019-05-01T01:12:52.015Z,99.90
2019-05-01T01:15:21.744Z,99.90
2019-05-01T01:17:51.392Z,99.90
2019-05-01T01:20:21.073Z,99.80
2019-05-01T01:22:50.875Z,99.10
2019-05-01T01:25:20.765Z,99.20
2019-05-01T01:27:50.383Z,99.20
2019-05-01T01:30:20.188Z,99.90
2019-05-01T01:32:49.801Z,99.60
2019-05-01T01:35:19.380Z,99.40
2019-05-01T01:37:49.010Z,99.50
2019-05-01T01:40:18.619Z,99.60
2019-05-01T01:42:50.012Z,99.80
2019-05-01T01:45:41.751Z,99.60
2019-05-01T01:50:48.549Z,99.40
2019-05-01T01:53:20.700Z,99.60
2019-05-01T01:55:50.809Z,99.70
2019-05-01T01:58:21.539Z,99.80
2019-05-01T02:01:09.822Z,99.60
2019-05-01T02:03:42.326Z,99.50
2019-05-01T02:06:12.038Z,99.60
2019-05-01T02:08:41.619Z,99.90
2019-05-01T02:11:11.432Z,99.90
2019-05-01T02:13:41.240Z,99.90
2019-05-01T02:16:10.847Z,99.90
2019-05-01T02:18:40.464Z,99.90
2019-05-01T02:21:10.185Z,99.90
2019-05-01T02:23:39.805Z,99.90
2019-05-01T02:26:11.116Z,99.90
2019-05-01T02:28:46.706Z,99.90
2019-05-01T02:31:47.532Z,99.90
2019-05-01T02:34:18.024Z,99.90
2019-05-01T02:36:48.602Z,99.90
2019-05-01T02:39:20.690Z,99.90
2019-05-01T02:41:52.977Z,99.90
2019-05-01T02:44:30.741Z,99.90
2019-05-01T02:47:03.291Z,99.90
2019-05-01T02:49:37.380Z,99.90
2019-05-01T02:52:10.142Z,99.90
2019-05-01T02:54:41.436Z,99.90
2019-05-01T02:57:13.061Z,99.90
2019-05-01T02:59:46.500Z,99.90
2019-05-01T03:02:17.235Z,99.90
2019-05-01T03:04:47.246Z,99.90
2019-05-01T03:07:17.779Z,99.90
2019-05-01T03:09:47.905Z,99.90
2019-05-01T03:12:20.189Z,99.90
2019-05-01T03:14:52.204Z,99.90
2019-05-01T03:17:45.609Z,99.90
2019-05-01T03:20:25.036Z,99.90
2019-05-01T03:23:16.385Z,99.90
2019-05-01T03:25:46.402Z,99.90
2019-05-01T03:28:16.107Z,99.90
2019-05-01T03:30:45.835Z,99.90
2019-05-01T03:33:15.549Z,99.90
2019-05-01T03:35:45.561Z,99.90
2019-05-01T03:38:15.449Z,99.90
2019-05-01T03:40:45.273Z,99.90
2019-05-01T03:43:14.850Z,99.90
2019-05-01T03:45:45.181Z,99.90
2019-05-01T03:48:14.776Z,99.90
2019-05-01T03:50:46.886Z,99.80
2019-05-01T03:53:15.956Z,99.70
2019-05-01T03:55:45.982Z,99.50
2019-05-01T03:58:16.125Z,99.60
2019-05-01T04:01:10.958Z,99.40
2019-05-01T04:03:47.059Z,99.30
2019-05-01T04:06:16.670Z,98.90
2019-05-01T04:08:46.420Z,98.80
2019-05-01T04:11:16.046Z,98.50
2019-05-01T04:13:46.035Z,98.40
2019-05-01T04:16:16.239Z,98.30
2019-05-01T04:18:45.919Z,98.20
2019-05-01T04:21:16.969Z,98.00
2019-05-01T04:23:46.540Z,98.10
2019-05-01T04:26:16.139Z,97.70
2019-05-01T04:29:11.004Z,97.30
2019-05-01T04:31:53.682Z,97.40
2019-05-01T04:34:42.546Z,97.50
2019-05-01T04:37:14.039Z,97.20
2019-05-01T04:39:43.750Z,96.90
2019-05-01T04:42:13.467Z,96.60
2019-05-01T04:44:43.081Z,96.60
2019-05-01T04:47:13.534Z,96.80
2019-05-01T04:49:43.588Z,96.80
2019-05-01T04:52:13.563Z,96.80
2019-05-01T04:54:43.198Z,97.20
2019-05-01T04:57:12.905Z,97.70
2019-05-01T04:59:42.907Z,97.20
2019-05-01T05:02:14.767Z,97.20
2019-05-01T05:04:44.537Z,96.90
2019-05-01T05:07:14.124Z,96.70
2019-05-01T05:09:44.912Z,96.60
2019-05-01T05:12:28.373Z,96.30
2019-05-01T05:15:02.583Z,96.60
2019-05-01T05:17:32.673Z,96.60
2019-05-01T05:20:02.281Z,96.90
2019-05-01T05:22:31.991Z,96.70
2019-05-01T05:25:01.696Z,96.60
2019-05-01T05:27:31.868Z,96.60
2019-05-01T05:30:02.699Z,96.90
2019-05-01T05:32:35.415Z,96.80
2019-05-01T05:35:06.515Z,97.00
2019-05-01T05:37:43.536Z,97.00
2019-05-01T05:40:13.395Z,96.80
2019-05-01T05:42:43.011Z,96.80
2019-05-01T05:45:12.608Z,96.60
2019-05-01T05:47:42.325Z,96.70
2019-05-01T05:50:14.686Z,96.50
2019-05-01T05:52:51.940Z,96.60
2019-05-01T05:55:31.142Z,96.80
2019-05-01T05:58:21.510Z,96.90
2019-05-01T06:01:03.588Z,96.90
2019-05-01T06:04:06.143Z,97.10
2019-05-01T06:06:42.706Z,97.00
2019-05-01T06:09:15.564Z,96.90
2019-05-01T06:12:04.995Z,97.00
2019-05-01T06:15:06.313Z,96.90
2019-05-01T06:17:59.082Z,96.60
2019-05-01T06:20:37.965Z,96.70
2019-05-01T06:23:26.715Z,96.60
2019-05-01T06:26:02.291Z,96.70
2019-05-01T06:28:31.233Z,96.90
2019-05-01T06:31:23.176Z,97.00
2019-05-01T06:33:53.063Z,96.80
2019-05-01T06:36:23.665Z,96.90
2019-05-01T06:38:52.753Z,97.30
2019-05-01T06:41:23.253Z,97.40
2019-05-01T06:44:04.058Z,97.10
2019-05-01T06:46:45.103Z,97.20
2019-05-01T06:49:39.883Z,97.30
2019-05-01T06:52:10.750Z,97.40
2019-05-01T06:54:40.724Z,97.40
2019-05-01T06:57:10.877Z,97.50
2019-05-01T06:59:42.175Z,97.30
2019-05-01T07:02:16.103Z,97.60
2019-05-01T07:04:48.497Z,97.80
2019-05-01T07:07:27.366Z,98.20
2019-05-01T07:09:55.174Z,98.70
2019-05-01T07:12:28.242Z,99.10
2019-05-01T07:14:59.155Z,99.20
2019-05-01T07:17:28.967Z,99.30
2019-05-01T07:20:11.854Z,99.40
2019-05-01T07:22:42.520Z,99.30
2019-05-01T07:25:13.588Z,99.40
2019-05-01T07:27:43.344Z,99.50
2019-05-01T07:30:24.639Z,99.70
2019-05-01T07:32:54.405Z,99.90
2019-05-01T07:35:24.312Z,99.90
2019-05-01T07:37:57.534Z,99.90
2019-05-01T07:40:29.148Z,99.90
2019-05-01T07:43:02.774Z,99.90
2019-05-01T07:45:50.218Z,99.90
2019-05-01T07:48:26.897Z,99.90
2019-05-01T07:50:56.838Z,99.90
2019-05-01T07:53:28.335Z,99.90
2019-05-01T07:56:01.321Z,99.90
2019-05-01T07:58:31.198Z,99.90
2019-05-01T08:01:13.172Z,99.90
2019-05-01T08:03:44.086Z,99.60
2019-05-01T08:06:16.357Z,99.40
2019-05-01T08:08:46.620Z,99.00
2019-05-01T08:11:16.283Z,97.70
2019-05-01T08:13:45.976Z,97.50
2019-05-01T08:16:15.657Z,97.20
2019-05-01T08:18:50.321Z,97.10
2019-05-01T08:21:30.539Z,96.60
2019-05-01T08:24:00.241Z,96.70
2019-05-01T08:26:29.914Z,96.70
2019-05-01T08:29:24.381Z,96.60
2019-05-01T08:32:12.915Z,96.70
2019-05-01T08:34:48.718Z,97.10
2019-05-01T08:37:17.779Z,97.10
2019-05-01T08:39:45.876Z,97.40
2019-05-01T08:42:15.622Z,97.60
2019-05-01T08:45:06.812Z,97.50
2019-05-01T08:47:37.177Z,97.80
2019-05-01T08:50:15.554Z,97.70
2019-05-01T08:52:47.467Z,98.10
2019-05-01T08:55:16.606Z,97.80
2019-05-01T08:57:46.243Z,97.70
2019-05-01T09:00:15.991Z,97.70
2019-05-01T09:02:45.754Z,98.20
2019-05-01T09:05:28.341Z,98.90
2019-05-01T09:07:46.748Z,98.70
2019-05-01T09:10:17.053Z,99.00
2019-05-01T09:12:48.777Z,98.90
2019-05-01T09:15:19.198Z,98.50
2019-05-01T09:17:49.050Z,98.80
2019-05-01T09:20:19.114Z,98.50
2019-05-01T09:22:48.934Z,99.40
2019-05-01T09:25:22.548Z,99.50
2019-05-01T09:27:59.550Z,99.40
2019-05-01T09:30:36.581Z,99.40
2019-05-01T09:33:06.246Z,99.50
2019-05-01T09:35:40.190Z,99.80
2019-05-01T09:38:07.442Z,99.90
2019-05-01T09:40:42.776Z,99.90
2019-05-01T09:43:12.552Z,99.90
2019-05-01T09:45:42.256Z,99.90
2019-05-01T09:48:12.107Z,99.90
2019-05-01T09:50:46.451Z,99.90
2019-05-01T09:53:34.215Z,99.90
2019-05-01T09:56:07.774Z,99.90
2019-05-01T09:58:38.508Z,99.90
2019-05-01T10:01:08.238Z,99.90
2019-05-01T10:03:37.966Z,99.90
2019-05-01T10:06:07.658Z,99.90
2019-05-01T10:08:40.004Z,99.90
2019-05-01T10:11:10.182Z,99.90
2019-05-01T10:13:39.917Z,99.90
2019-05-01T10:16:09.527Z,99.90
2019-05-01T10:18:39.216Z,99.90
2019-05-01T10:21:08.918Z,99.90
2019-05-01T10:23:38.584Z,99.90
2019-05-01T10:26:10.220Z,99.90
2019-05-01T10:28:58.715Z,99.90
2019-05-01T10:31:46.615Z,99.90
2019-05-01T10:34:28.279Z,99.90
2019-05-01T10:36:57.988Z,99.90
2019-05-01T10:39:30.132Z,99.90
2019-05-01T10:41:59.050Z,99.90
2019-05-01T10:44:28.679Z,99.90
2019-05-01T10:46:58.332Z,99.90
2019-05-01T10:49:28.066Z,99.90
2019-05-01T10:51:57.711Z,99.90
2019-05-01T10:54:27.376Z,99.90
2019-05-01T10:56:58.884Z,99.70
2019-05-01T10:59:28.323Z,97.30
2019-05-01T11:01:59.689Z,97.00
2019-05-01T11:04:29.306Z,97.80
2019-05-01T11:06:58.967Z,97.80
2019-05-01T11:09:28.703Z,97.70
2019-05-01T11:11:58.335Z,98.90
2019-05-01T11:14:27.990Z,98.10
2019-05-01T11:16:57.839Z,98.60
2019-05-01T11:19:29.651Z,99.10
2019-05-01T11:21:58.792Z,99.00
2019-05-01T11:24:28.538Z,97.90
2019-05-01T11:26:58.185Z,97.60
2019-05-01T11:29:29.803Z,97.70
2019-05-01T11:32:30.050Z,96.40
2019-05-01T11:35:17.261Z,96.00
2019-05-01T11:38:05.803Z,94.70
2019-05-01T11:40:40.886Z,94.10
2019-05-01T11:43:10.510Z,92.80
2019-05-01T11:45:40.273Z,92.20
2019-05-01T11:48:09.947Z,92.30
2019-05-01T11:50:39.629Z,92.50
2019-05-01T11:53:09.436Z,93.70
2019-05-01T11:55:39.086Z,94.00
2019-05-01T11:58:08.747Z,94.30
2019-05-01T12:00:38.449Z,93.90
2019-05-01T12:03:08.140Z,94.70
2019-05-01T12:05:37.891Z,95.50
2019-05-01T12:08:07.566Z,95.50
2019-05-01T12:10:37.250Z,95.70
2019-05-01T12:13:07.034Z,95.80
2019-05-01T12:15:36.715Z,94.60
2019-05-01T12:18:06.378Z,94.60
2019-05-01T12:20:36.078Z,94.40
2019-05-01T12:23:05.897Z,94.80
2019-05-01T12:25:35.563Z,94.20
2019-05-01T12:28:05.542Z,93.80
2019-05-01T12:30:35.251Z,93.60
2019-05-01T12:33:05.023Z,93.70
2019-05-01T12:35:34.740Z,93.60
2019-05-01T12:38:04.661Z,93.40
2019-05-01T12:40:34.322Z,93.30
2019-05-01T12:43:04.237Z,92.40
2019-05-01T12:45:33.899Z,91.30
2019-05-01T12:48:05.335Z,91.10
2019-05-01T12:50:34.994Z,89.70
2019-05-01T12:53:21.811Z,88.00
2019-05-01T12:56:16.348Z,86.00
2019-05-01T12:58:47.065Z,83.00
2019-05-01T13:01:16.686Z,84.20
2019-05-01T13:03:46.349Z,83.20
2019-05-01T13:06:16.021Z,81.70
2019-05-01T13:08:45.733Z,82.90
2019-05-01T13:11:15.417Z,82.50
2019-05-01T13:13:45.102Z,81.70
2019-05-01T13:16:14.739Z,81.40
2019-05-01T13:18:44.405Z,80.00
2019-05-01T13:21:14.189Z,79.90
2019-05-01T13:23:43.946Z,80.90
2019-05-01T13:26:47.770Z,81.60
2019-05-01T13:29:54.381Z,81.70
2019-05-01T13:32:54.855Z,82.90
2019-05-01T13:35:24.763Z,84.80
2019-05-01T13:37:54.441Z,86.80
2019-05-01T13:40:24.081Z,87.50
2019-05-01T13:42:53.788Z,88.60
2019-05-01T13:45:23.588Z,89.20
2019-05-01T13:47:54.519Z,90.40
2019-05-01T13:50:24.653Z,90.80
2019-05-01T13:52:54.304Z,91.00
2019-05-01T13:55:23.932Z,91.80
2019-05-01T13:57:53.560Z,92.10
2019-05-01T14:00:23.387Z,92.60
2019-05-01T14:02:53.026Z,92.70
2019-05-01T14:05:22.946Z,92.60
2019-05-01T14:07:52.658Z,92.80
2019-05-01T14:10:22.563Z,92.50
2019-05-01T14:12:52.227Z,92.70
2019-05-01T14:15:21.841Z,93.40
2019-05-01T14:17:51.497Z,93.60
2019-05-01T14:20:39.997Z,93.20
2019-05-01T14:23:19.772Z,93.60
2019-05-01T14:26:05.030Z,93.90
2019-05-01T14:28:34.867Z,94.00
2019-05-01T14:31:04.625Z,94.00
2019-05-01T14:33:34.567Z,94.50
2019-05-01T14:36:04.173Z,95.10
2019-05-01T14:38:33.809Z,95.30
2019-05-01T14:41:03.453Z,96.20
2019-05-01T14:43:33.100Z,97.00
2019-05-01T14:46:02.722Z,98.10
2019-05-01T14:48:32.363Z,98.30
2019-05-01T14:51:01.982Z,98.20
2019-05-01T14:53:31.674Z,97.80
2019-05-01T14:56:01.312Z,98.70
2019-05-01T14:58:31.091Z,97.80
2019-05-01T15:01:00.740Z,96.60
2019-05-01T15:03:30.457Z,96.70
2019-05-01T15:06:00.071Z,97.10
2019-05-01T15:08:29.824Z,97.70
2019-05-01T15:10:59.427Z,97.40
2019-05-01T15:13:39.888Z,97.10
2019-05-01T15:16:23.168Z,97.00
2019-05-01T15:19:09.451Z,96.90
2019-05-01T15:21:39.083Z,96.90
2019-05-01T15:24:08.789Z,97.50
2019-05-01T15:26:38.449Z,98.00
2019-05-01T15:29:08.146Z,98.20
2019-05-01T15:31:37.862Z,98.40
2019-05-01T15:34:07.477Z,99.00
2019-05-01T15:36:37.166Z,99.30
2019-05-01T15:39:11.253Z,99.20
2019-05-01T15:41:59.751Z,99.80
2019-05-01T15:44:32.092Z,99.60
2019-05-01T15:47:01.749Z,99.70
2019-05-01T15:49:31.385Z,99.90
2019-05-01T15:52:01.025Z,99.90
2019-05-01T15:54:30.720Z,99.90
2019-05-01T15:57:00.338Z,99.90
2019-05-01T15:59:29.995Z,99.90
2019-05-01T16:01:59.668Z,99.90
2019-05-01T16:04:29.278Z,99.90
2019-05-01T16:06:58.930Z,99.90
2019-05-01T16:09:28.543Z,99.90
2019-05-01T16:12:17.050Z,99.90
2019-05-01T16:14:51.101Z,99.90
2019-05-01T16:17:20.747Z,99.90
2019-05-01T16:19:50.384Z,99.90
2019-05-01T16:22:20.085Z,99.90
2019-05-01T16:24:49.694Z,99.90
2019-05-01T16:27:19.422Z,99.90
2019-05-01T16:29:49.062Z,99.90
2019-05-01T16:32:18.733Z,99.90
2019-05-01T16:34:48.356Z,99.90
2019-05-01T16:37:18.009Z,99.90
2019-05-01T16:40:06.546Z,99.90
2019-05-01T16:42:38.302Z,99.90
2019-05-01T16:45:08.241Z,99.90
2019-05-01T16:47:37.882Z,99.90
2019-05-01T16:50:09.017Z,99.90
2019-05-01T16:52:39.122Z,99.90
2019-05-01T16:55:10.205Z,99.90
2019-05-01T16:57:39.846Z,99.90
2019-05-01T17:00:10.967Z,99.90
2019-05-01T17:03:05.904Z,99.90
2019-05-01T17:05:54.938Z,99.90
2019-05-01T17:08:46.222Z,99.90
2019-05-01T17:11:15.943Z,99.90
2019-05-01T17:13:45.579Z,99.90
2019-05-01T17:16:15.452Z,99.90
2019-05-01T17:18:45.140Z,99.90
2019-05-01T17:21:15.066Z,99.90
2019-05-01T17:23:44.694Z,99.90
2019-05-01T17:26:14.335Z,99.90
2019-05-01T17:28:43.956Z,99.90
2019-05-01T17:31:13.600Z,99.90
2019-05-01T17:33:43.341Z,99.90
2019-05-01T17:36:12.987Z,99.90
2019-05-01T17:38:49.202Z,99.90
2019-05-01T17:41:14.022Z,99.90
2019-05-01T17:43:44.703Z,99.90
2019-05-01T17:46:14.972Z,99.90
2019-05-01T17:48:44.642Z,99.90
2019-05-01T17:51:14.365Z,99.90
2019-05-01T17:53:43.956Z,99.90
2019-05-01T17:56:15.245Z,99.90
2019-05-01T17:58:44.872Z,99.90
2019-05-01T18:01:45.246Z,99.90
2019-05-01T18:04:30.347Z,99.90
2019-05-01T18:07:00.328Z,99.90
2019-05-01T18:09:29.932Z,99.90
2019-05-01T18:11:59.585Z,99.90
2019-05-01T18:14:29.216Z,99.90
2019-05-01T18:16:58.876Z,99.90
2019-05-01T18:19:28.506Z,99.90
2019-05-01T18:22:10.366Z,99.90
2019-05-01T18:24:59.699Z,99.90
2019-05-01T18:27:49.867Z,99.90
2019-05-01T18:30:20.608Z,99.90
2019-05-01T18:32:52.593Z,99.90
2019-05-01T18:35:22.452Z,99.90
2019-05-01T18:37:57.299Z,99.90
2019-05-01T18:40:34.843Z,99.90
2019-05-01T18:43:04.641Z,99.90
2019-05-01T18:45:54.394Z,99.90
2019-05-01T18:48:24.769Z,99.90
2019-05-01T18:50:56.311Z,99.90
2019-05-01T18:53:26.073Z,99.90
2019-05-01T18:55:55.746Z,99.90
2019-05-01T18:58:25.524Z,99.90
2019-05-01T19:00:55.383Z,99.90
2019-05-01T19:03:25.325Z,99.90
2019-05-01T19:05:55.090Z,99.90
2019-05-01T19:08:24.803Z,99.90
2019-05-01T19:10:54.659Z,99.90
2019-05-01T19:13:24.332Z,99.90
2019-05-01T19:15:54.054Z,99.90
2019-05-01T19:18:24.357Z,99.90
2019-05-01T19:20:59.856Z,99.90
2019-05-01T19:23:28.095Z,99.90
2019-05-01T19:26:03.603Z,99.90
2019-05-01T19:28:28.135Z,99.90
2019-05-01T19:30:57.872Z,99.90
2019-05-01T19:33:27.759Z,99.90
2019-05-01T19:35:57.572Z,99.90
2019-05-01T19:38:29.569Z,99.90
2019-05-01T19:41:03.420Z,99.90
2019-05-01T19:43:30.604Z,99.90
2019-05-01T19:46:00.264Z,99.90
2019-05-01T19:48:29.959Z,99.90
2019-05-01T19:50:59.606Z,99.90
2019-05-01T19:53:29.576Z,99.90
2019-05-01T19:55:59.229Z,99.90
2019-05-01T19:58:28.848Z,99.90
2019-05-01T20:01:04.037Z,99.90
2019-05-01T20:03:36.137Z,99.90
2019-05-01T20:06:05.596Z,99.90
2019-05-01T20:08:35.057Z,99.90
2019-05-01T20:11:04.990Z,99.90
2019-05-01T20:13:34.677Z,99.90
2019-05-01T20:16:06.368Z,99.90
2019-05-01T20:18:36.200Z,99.90
2019-05-01T20:21:06.104Z,99.90
2019-05-01T20:23:35.819Z,99.90
2019-05-01T20:26:05.562Z,99.90
2019-05-01T20:28:37.207Z,99.90
2019-05-01T20:31:06.567Z,99.90
2019-05-01T20:33:39.126Z,99.90
2019-05-01T20:36:07.473Z,99.90
2019-05-01T20:38:37.213Z,99.90
2019-05-01T20:41:10.342Z,99.90
2019-05-01T20:43:43.427Z,99.90
2019-05-01T20:46:09.728Z,99.90
2019-05-01T20:48:39.444Z,99.90
2019-05-01T20:51:09.082Z,99.90
2019-05-01T20:53:38.727Z,99.90
2019-05-01T20:56:36.451Z,99.90
2019-05-01T20:59:06.256Z,99.90
2019-05-01T21:01:36.023Z,99.90
2019-05-01T21:04:24.756Z,99.90
2019-05-01T21:07:15.452Z,99.90
2019-05-01T21:09:47.680Z,99.90
2019-05-01T21:12:16.534Z,99.90
2019-05-01T21:14:49.697Z,99.90
2019-05-01T21:17:17.550Z,99.90
2019-05-01T21:19:47.273Z,99.90
2019-05-01T21:22:16.948Z,99.90
2019-05-01T21:24:46.626Z,99.90
2019-05-01T21:27:16.307Z,99.90
2019-05-01T21:29:45.971Z,99.90
2019-05-01T21:32:18.392Z,99.90
2019-05-01T21:34:47.014Z,99.90
2019-05-01T21:37:16.713Z,99.90
2019-05-01T21:39:46.389Z,99.90
2019-05-01T21:42:16.413Z,99.90
2019-05-01T21:44:46.020Z,99.90
2019-05-01T21:47:15.680Z,99.90
2019-05-01T21:49:45.306Z,99.90
2019-05-01T21:52:17.876Z,99.90
2019-05-01T21:54:50.267Z,99.90
2019-05-01T21:57:19.113Z,99.90
2019-05-01T21:59:48.915Z,99.90
2019-05-01T22:02:18.662Z,99.90
2019-05-01T22:04:48.288Z,99.90
2019-05-01T22:07:17.929Z,99.90
2019-05-01T22:09:50.462Z,99.90
2019-05-01T22:12:18.837Z,99.90
2019-05-01T22:14:55.925Z,99.90
2019-05-01T22:17:50.493Z,99.90
2019-05-01T22:20:26.747Z,99.90
2019-05-01T22:23:00.836Z,99.90
2019-05-01T22:25:37.320Z,99.90
2019-05-01T22:28:25.820Z,99.90
2019-05-01T22:31:16.832Z,99.90
2019-05-01T22:33:45.638Z,99.90
2019-05-01T22:36:15.466Z,99.90
2019-05-01T22:38:46.637Z,99.90
2019-05-01T22:41:16.289Z,99.90
2019-05-01T22:43:46.017Z,99.90
2019-05-01T22:46:21.493Z,99.90
2019-05-01T22:48:51.142Z,99.90
2019-05-01T22:51:22.310Z,99.90
2019-05-01T22:53:55.045Z,99.90
2019-05-01T22:56:25.499Z,99.90
2019-05-01T22:58:55.112Z,99.90
2019-05-01T23:01:25.957Z,99.90
2019-05-01T23:03:57.469Z,99.90
2019-05-01T23:06:27.100Z,99.90
2019-05-01T23:08:56.763Z,99.90
2019-05-01T23:11:27.938Z,99.90
2019-05-01T23:13:57.586Z,99.90
2019-05-01T23:16:30.817Z,99.90
2019-05-01T23:19:00.421Z,99.90
2019-05-01T23:21:30.047Z,99.90
2019-05-01T23:24:01.901Z,99.90
2019-05-01T23:26:30.941Z,99.90
2019-05-01T23:29:00.585Z,99.90
2019-05-01T23:31:30.660Z,99.90
2019-05-01T23:34:00.275Z,99.90
2019-05-01T23:36:29.888Z,99.90
2019-05-01T23:38:59.486Z,99.90
2019-05-01T23:41:45.121Z,99.90
2019-05-01T23:44:03.634Z,99.90
2019-05-01T23:46:31.680Z,99.90
2019-05-01T23:49:01.287Z,99.90
2019-05-01T23:51:30.883Z,99.90
2019-05-01T23:54:00.503Z,99.90
2019-05-01T23:56:31.089Z,99.90
2019-05-01T23:59:01.480Z,99.90
